Time;durP1;ratioP1;P1;durP2;ratioP2;P2;SDS_P1;SDS_P2;PMS_P1;PMS_P2;Temp;Humidity;BMP_temperature;BMP_pressure;BME280_temperature;BME280_humidity;BME280_pressure;Samples;Min_cycle;Max_cycle;Signal;HPM_P1;HPM_P2
2020/12/10 00:00:50;;;;;;;25.17;16.80;;;;;;;2.20;77.81;94916.53;5074465;28;20072;-52
2020/12/10 00:03:16;;;;;;;23.98;16.38;;;;;;;2.19;77.78;94905.06;5075018;28;20593;-51
2020/12/10 00:05:43;;;;;;;25.92;17.15;;;;;;;2.24;77.48;94902.28;5073649;28;20055;-50
2020/12/10 00:08:09;;;;;;;26.98;17.58;;;;;;;1.96;78.87;94898.94;5074395;28;20127;-47
2020/12/10 00:10:35;;;;;;;23.75;16.00;;;;;;;1.96;78.87;94903.50;5074157;28;20232;-53
2020/12/10 00:13:07;;;;;;;23.63;15.02;;;;;;;2.15;77.87;94903.31;5074374;28;20048;-51
2020/12/10 00:15:34;;;;;;;22.80;15.13;;;;;;;2.08;77.37;94893.84;5072332;28;20545;-54
2020/12/10 00:18:00;;;;;;;24.95;15.90;;;;;;;2.18;77.70;94892.81;5073077;28;20121;-46
2020/12/10 00:20:27;;;;;;;23.98;16.02;;;;;;;2.08;78.12;94888.53;5073968;28;20063;-44
2020/12/10 00:22:53;;;;;;;25.15;16.25;;;;;;;2.02;78.47;94889.72;5074242;28;20075;-49
2020/12/10 00:25:19;;;;;;;26.45;16.60;;;;;;;2.06;78.39;94896.03;5073321;28;20497;-47
2020/12/10 00:27:46;;;;;;;24.92;16.58;;;;;;;1.90;79.04;94900.16;5072958;28;20052;-45
2020/12/10 00:30:12;;;;;;;24.60;15.30;;;;;;;1.77;79.37;94893.75;5073179;28;20049;-46
2020/12/10 00:32:39;;;;;;;24.13;15.52;;;;;;;1.96;78.51;94906.94;5074041;28;20135;-45
2020/12/10 00:35:08;;;;;;;24.88;16.52;;;;;;;2.15;78.01;94897.97;5073846;28;20134;-48
2020/12/10 00:37:37;;;;;;;23.95;15.60;;;;;;;1.98;78.88;94899.44;5073270;28;20464;-46
2020/12/10 00:40:06;;;;;;;26.75;17.05;;;;;;;2.22;77.89;94903.69;5073890;28;20064;-46
2020/12/10 00:42:32;;;;;;;26.42;16.33;;;;;;;2.28;77.17;94895.25;5073770;28;20051;-46
2020/12/10 00:44:59;;;;;;;25.55;16.27;;;;;;;2.00;78.82;94883.13;5073672;28;20080;-46
2020/12/10 00:47:26;;;;;;;27.98;18.77;;;;;;;2.14;78.17;94872.38;5073130;28;20072;-46
2020/12/10 00:49:56;;;;;;;26.77;17.45;;;;;;;2.19;78.16;94864.25;5072653;28;20040;-48
2020/12/10 00:52:25;;;;;;;27.63;17.90;;;;;;;2.12;78.09;94861.22;5072238;28;20044;-45
2020/12/10 00:54:56;;;;;;;29.67;18.52;;;;;;;2.17;78.20;94871.75;5073544;28;20494;-46
2020/12/10 00:57:25;;;;;;;29.23;17.88;;;;;;;2.09;78.32;94863.41;5071852;28;20133;-44
2020/12/10 01:00:11;;;;;;;24.60;16.65;;;;;;;2.00;78.91;94865.22;5073794;28;20053;-45
2020/12/10 01:02:37;;;;;;;26.17;16.90;;;;;;;1.95;79.21;94869.88;5073575;28;20127;-45
2020/12/10 01:05:05;;;;;;;27.58;16.75;;;;;;;2.10;78.81;94864.97;5073546;28;20052;-45
2020/12/10 01:07:31;;;;;;;25.67;16.73;;;;;;;1.93;78.62;94862.19;5072512;28;20060;-46
2020/12/10 01:10:00;;;;;;;25.55;16.17;;;;;;;1.79;79.14;94843.59;5073095;28;20482;-45
2020/12/10 01:12:26;;;;;;;23.05;15.32;;;;;;;1.99;78.32;94841.53;5073175;28;20468;-46
2020/12/10 01:14:52;;;;;;;22.67;15.38;;;;;;;2.00;78.62;94854.56;5073301;28;20199;-54
2020/12/10 01:17:19;;;;;;;24.40;15.65;;;;;;;1.97;78.88;94863.16;5072669;28;20053;-51
2020/12/10 01:19:46;;;;;;;27.05;17.02;;;;;;;1.84;79.48;94877.34;5073410;28;20086;-51
2020/12/10 01:22:14;;;;;;;24.27;15.27;;;;;;;1.92;78.59;94860.63;5073012;28;20045;-55
2020/12/10 01:24:40;;;;;;;24.35;16.40;;;;;;;1.88;79.17;94851.63;5073306;28;20067;-52
2020/12/10 01:27:07;;;;;;;25.67;16.45;;;;;;;2.08;78.62;94853.84;5072776;28;20052;-50
2020/12/10 01:29:33;;;;;;;25.45;16.42;;;;;;;2.12;78.14;94859.34;5073258;28;20051;-50
2020/12/10 01:31:59;;;;;;;25.60;16.80;;;;;;;2.04;78.75;94850.19;5073261;28;20413;-47
2020/12/10 01:34:26;;;;;;;26.63;16.92;;;;;;;2.21;77.84;94857.53;5073076;28;20052;-53
2020/12/10 01:36:52;;;;;;;25.67;15.88;;;;;;;2.00;78.43;94849.22;5071923;28;20056;-52
2020/12/10 01:39:19;;;;;;;25.10;16.35;;;;;;;2.14;78.03;94851.03;5073000;28;20121;-51
2020/12/10 01:41:48;;;;;;;26.70;16.65;;;;;;;1.97;78.88;94851.72;5072572;28;20159;-52
2020/12/10 01:44:14;;;;;;;29.35;18.35;;;;;;;1.91;78.78;94856.38;5073067;28;20449;-51
2020/12/10 01:46:47;;;;;;;27.95;16.98;;;;;;;2.00;78.59;94849.22;5072140;28;20056;-55
2020/12/10 01:49:13;;;;;;;27.23;17.15;;;;;;;2.04;78.85;94852.06;5073149;28;20075;-51
2020/12/10 01:51:45;;;;;;;29.13;17.63;;;;;;;2.07;78.47;94846.13;5072513;28;20114;-45
2020/12/10 01:54:12;;;;;;;25.00;16.75;;;;;;;2.18;78.06;94849.31;5072547;28;20452;-50
2020/12/10 01:56:38;;;;;;;21.45;14.77;;;;;;;2.17;77.93;94843.19;5071498;28;20134;-49
2020/12/10 01:59:05;;;;;;;28.88;17.33;;;;;;;2.14;78.29;94843.03;5072281;28;20171;-50
2020/12/10 02:01:33;;;;;;;26.58;16.90;;;;;;;2.09;78.38;94835.94;5072863;28;20445;-50
2020/12/10 02:04:02;;;;;;;28.83;17.52;;;;;;;2.07;78.38;94830.13;5072291;28;20053;-50
2020/12/10 02:06:29;;;;;;;25.42;17.33;;;;;;;2.11;78.04;94820.41;5071078;28;20048;-54
2020/12/10 02:08:56;;;;;;;24.50;16.60;;;;;;;1.90;78.92;94816.69;5072101;28;20067;-51
2020/12/10 02:11:24;;;;;;;27.08;17.20;;;;;;;2.06;78.63;94825.88;5071902;28;20155;-48
2020/12/10 02:13:51;;;;;;;25.45;16.63;;;;;;;1.96;78.46;94805.56;5071887;28;20060;-45
2020/12/10 02:16:18;;;;;;;27.02;17.23;;;;;;;2.01;78.35;94810.78;5071140;28;20048;-45
2020/12/10 02:18:45;;;;;;;29.48;17.40;;;;;;;1.90;78.74;94804.13;5071577;28;20052;-46
2020/12/10 02:21:12;;;;;;;26.63;17.10;;;;;;;1.80;79.44;94815.03;5071678;28;20118;-45
2020/12/10 02:23:38;;;;;;;26.85;17.02;;;;;;;2.07;78.61;94806.88;5070556;28;20139;-46
2020/12/10 02:26:05;;;;;;;26.98;16.20;;;;;;;2.24;78.02;94806.22;5071175;28;20052;-49
2020/12/10 02:28:31;;;;;;;23.58;15.65;;;;;;;2.32;76.83;94802.78;5071542;28;20052;-47
2020/12/10 02:30:58;;;;;;;23.50;15.68;;;;;;;2.38;76.62;94803.44;5071434;28;20127;-45
2020/12/10 02:33:24;;;;;;;24.23;16.08;;;;;;;2.22;77.37;94794.25;5071609;28;20090;-45
2020/12/10 02:35:51;;;;;;;26.00;16.25;;;;;;;2.19;77.47;94790.31;5071027;28;20348;-45
2020/12/10 02:38:17;;;;;;;24.42;15.00;;;;;;;2.30;77.42;94777.47;5071572;28;20067;-51
2020/12/10 02:40:46;;;;;;;25.75;16.08;;;;;;;2.42;77.04;94780.38;5071450;28;20543;-49
2020/12/10 02:43:14;;;;;;;25.90;16.40;;;;;;;2.39;76.93;94780.19;5071652;28;20424;-44
2020/12/10 02:45:41;;;;;;;28.70;17.80;;;;;;;2.27;77.46;94780.78;5069675;28;20148;-44
2020/12/10 02:48:08;;;;;;;25.98;16.85;;;;;;;2.39;76.92;94782.88;5070496;28;20416;-46
2020/12/10 02:50:36;;;;;;;27.00;16.23;;;;;;;2.39;76.70;94764.97;5071340;28;20052;-46
2020/12/10 02:53:04;;;;;;;25.27;16.02;;;;;;;2.48;76.33;94773.00;5070963;28;20055;-45
2020/12/10 02:55:30;;;;;;;26.60;16.55;;;;;;;2.32;76.60;94762.75;5070517;28;20048;-46
2020/12/10 02:57:56;;;;;;;26.73;16.90;;;;;;;2.25;77.16;94764.28;5071498;28;20055;-45
2020/12/10 03:00:23;;;;;;;25.77;17.30;;;;;;;2.22;77.51;94764.91;5069964;28;20049;-46
2020/12/10 03:02:49;;;;;;;24.20;15.55;;;;;;;2.31;77.01;94761.19;5071124;28;20048;-45
2020/12/10 03:05:15;;;;;;;27.23;17.33;;;;;;;2.20;77.54;94761.75;5071131;28;20503;-48
2020/12/10 03:07:42;;;;;;;24.83;16.33;;;;;;;2.40;76.65;94769.19;5070892;28;20541;-46
2020/12/10 03:10:08;;;;;;;27.65;16.48;;;;;;;2.31;76.92;94760.41;5070839;28;20126;-47
2020/12/10 03:12:35;;;;;;;27.58;17.30;;;;;;;1.99;77.82;94766.84;5070807;28;20045;-45
2020/12/10 03:15:01;;;;;;;24.35;15.75;;;;;;;1.92;78.64;94761.13;5071148;28;20079;-46
2020/12/10 03:17:28;;;;;;;24.45;15.07;;;;;;;2.09;77.33;94747.91;5070570;28;20057;-45
2020/12/10 03:19:55;;;;;;;27.38;16.33;;;;;;;2.24;76.81;94744.03;5071306;28;20510;-48
2020/12/10 03:22:21;;;;;;;26.48;15.73;;;;;;;2.03;77.52;94736.56;5071093;28;20366;-45
2020/12/10 03:24:48;;;;;;;27.13;16.30;;;;;;;1.95;77.90;94734.66;5071190;28;20522;-45
2020/12/10 03:27:15;;;;;;;26.25;16.50;;;;;;;2.07;77.94;94742.06;5070430;28;20048;-46
2020/12/10 03:29:41;;;;;;;27.83;17.13;;;;;;;2.09;77.65;94727.34;5071171;28;20052;-48
2020/12/10 03:32:08;;;;;;;26.88;16.65;;;;;;;2.19;77.36;94730.81;5070681;28;20136;-44
2020/12/10 03:34:34;;;;;;;26.70;16.75;;;;;;;2.08;77.76;94723.09;5071120;28;20501;-45
2020/12/10 03:37:01;;;;;;;25.27;15.15;;;;;;;2.09;77.26;94721.22;5070365;28;20129;-48
2020/12/10 03:39:30;;;;;;;22.85;14.85;;;;;;;2.19;77.06;94726.28;5070857;28;20044;-47
2020/12/10 03:41:59;;;;;;;24.77;15.65;;;;;;;2.22;76.85;94725.66;5070613;28;20056;-44
2020/12/10 03:44:27;;;;;;;26.08;15.73;;;;;;;2.18;77.07;94718.56;5070834;28;20055;-45
2020/12/10 03:46:54;;;;;;;24.00;15.35;;;;;;;2.18;77.01;94719.38;5070288;28;20071;-45
2020/12/10 03:49:22;;;;;;;26.67;16.17;;;;;;;2.14;77.42;94714.94;5070708;28;20056;-48
2020/12/10 03:51:48;;;;;;;24.75;14.90;;;;;;;2.21;76.82;94707.28;5070731;28;20059;-44
2020/12/10 03:54:15;;;;;;;24.48;15.32;;;;;;;2.14;76.96;94690.94;5071622;28;20037;-45
2020/12/10 03:56:41;;;;;;;24.45;15.13;;;;;;;2.28;76.88;94694.28;5069132;28;20140;-48
2020/12/10 03:59:08;;;;;;;22.75;15.02;;;;;;;2.22;76.63;94690.19;5071375;28;20052;-47
2020/12/10 04:01:35;;;;;;;24.05;15.05;;;;;;;2.17;76.89;94684.97;5071125;28;20078;-46
2020/12/10 04:04:04;;;;;;;24.27;14.55;;;;;;;2.30;76.43;94692.84;5071465;28;20053;-47
2020/12/10 04:06:30;;;;;;;22.25;14.75;;;;;;;2.31;76.67;94699.00;5071019;28;20052;-47
2020/12/10 04:08:58;;;;;;;23.98;15.20;;;;;;;2.27;76.91;94700.69;5073951;28;20105;-51
2020/12/10 04:11:25;;;;;;;23.40;14.68;;;;;;;2.30;76.46;94700.09;5081658;22;20037;-51
2020/12/10 04:13:53;;;;;;;22.48;14.73;;;;;;;2.33;76.41;94694.13;5054586;28;20049;-50
2020/12/10 04:16:19;;;;;;;22.73;14.02;;;;;;;2.40;75.82;94689.13;5053869;28;20080;-50
2020/12/10 04:18:47;;;;;;;24.92;15.13;;;;;;;2.09;76.37;94687.31;5053348;28;20490;-47
2020/12/10 04:21:13;;;;;;;26.60;15.68;;;;;;;1.84;78.51;94691.44;5054458;28;20418;-52
2020/12/10 04:23:40;;;;;;;26.40;16.58;;;;;;;1.72;79.08;94695.75;5054190;28;20049;-50
2020/12/10 04:26:06;;;;;;;24.58;15.13;;;;;;;1.86;77.93;94697.25;5053673;28;20583;-48
2020/12/10 04:28:33;;;;;;;25.67;14.45;;;;;;;1.81;78.06;94691.25;5054221;28;20084;-47
2020/12/10 04:30:59;;;;;;;22.05;15.20;;;;;;;1.70;78.63;94695.31;5054176;28;20460;-45
2020/12/10 04:33:26;;;;;;;25.95;14.93;;;;;;;1.63;78.98;94688.53;5054077;28;20409;-48
2020/12/10 04:35:52;;;;;;;23.25;14.57;;;;;;;1.87;78.32;94685.50;5052090;28;20048;-46
2020/12/10 04:38:19;;;;;;;23.85;14.90;;;;;;;2.00;77.25;94678.47;5053925;28;20079;-45
2020/12/10 04:40:46;;;;;;;23.80;14.90;;;;;;;2.09;77.10;94689.19;5054055;28;20060;-46
2020/12/10 04:43:13;;;;;;;22.88;14.48;;;;;;;2.16;76.69;94684.19;5053950;28;20498;-47
2020/12/10 04:45:40;;;;;;;23.30;15.05;;;;;;;2.23;76.28;94686.41;5053124;28;20063;-45
2020/12/10 04:48:06;;;;;;;21.55;13.27;;;;;;;2.34;75.79;94679.72;5053909;28;20502;-46
2020/12/10 04:50:36;;;;;;;22.33;13.95;;;;;;;2.43;75.38;94687.72;5053845;28;20103;-47
2020/12/10 04:53:03;;;;;;;22.48;13.80;;;;;;;2.57;74.71;94686.50;5053763;28;20048;-46
2020/12/10 04:55:30;;;;;;;23.38;14.25;;;;;;;2.57;74.34;94685.72;5053200;28;20094;-45
2020/12/10 04:57:59;;;;;;;21.27;13.45;;;;;;;2.44;74.74;94681.28;5053734;28;20045;-49
2020/12/10 05:00:27;;;;;;;24.60;14.60;;;;;;;2.24;75.16;94682.63;5053714;28;20060;-48
2020/12/10 05:02:55;;;;;;;22.13;14.52;;;;;;;2.07;76.10;94686.81;5052298;28;20415;-50
2020/12/10 05:05:29;;;;;;;22.67;14.30;;;;;;;2.09;76.68;94683.88;5052984;28;20530;-50
2020/12/10 05:07:58;;;;;;;22.92;14.07;;;;;;;2.25;76.14;94690.34;5053551;28;20053;-48
2020/12/10 05:10:25;;;;;;;22.80;14.23;;;;;;;2.23;76.28;94681.06;5053466;28;20084;-45
2020/12/10 05:13:06;;;;;;;22.33;14.38;;;;;;;2.30;76.17;94678.72;5053711;28;20135;-47
2020/12/10 05:15:34;;;;;;;23.88;14.77;;;;;;;2.17;76.51;94690.31;5052753;28;20498;-50
2020/12/10 05:18:08;;;;;;;22.05;13.85;;;;;;;2.30;76.43;94681.41;5053307;28;20098;-53
2020/12/10 05:20:38;;;;;;;23.67;15.18;;;;;;;2.43;76.46;94674.38;5053794;28;20435;-47
2020/12/10 05:23:07;;;;;;;21.55;13.73;;;;;;;2.57;75.19;94675.03;5053410;28;20049;-49
2020/12/10 05:25:48;;;;;;;21.10;13.50;;;;;;;2.74;74.74;94664.38;5052542;28;20113;-51
2020/12/10 05:28:16;;;;;;;20.42;13.75;;;;;;;2.89;74.13;94681.81;5052935;28;20049;-51
2020/12/10 05:30:44;;;;;;;18.67;11.75;;;;;;;2.76;73.11;94669.38;5052959;28;20052;-50
2020/12/10 05:33:15;;;;;;;20.23;13.32;;;;;;;2.83;73.18;94663.56;5052795;28;20052;-52
2020/12/10 05:35:42;;;;;;;21.73;13.60;;;;;;;2.70;74.66;94678.69;5052359;28;20052;-49
2020/12/10 05:38:13;;;;;;;23.08;13.82;;;;;;;2.77;74.96;94674.44;5051638;28;20053;-51
2020/12/10 05:40:39;;;;;;;20.17;13.13;;;;;;;2.77;74.40;94669.09;5052899;28;20041;-52
2020/12/10 05:43:07;;;;;;;21.13;14.30;;;;;;;2.86;74.75;94681.66;5053184;28;20387;-52
2020/12/10 05:45:39;;;;;;;19.58;13.13;;;;;;;2.81;74.46;94674.59;5052255;28;20049;-53
2020/12/10 05:48:06;;;;;;;17.80;11.38;;;;;;;2.65;73.84;94671.59;5052371;28;20095;-48
2020/12/10 05:50:34;;;;;;;17.95;11.90;;;;;;;2.69;73.92;94666.41;5053024;28;20102;-50
2020/12/10 05:53:10;;;;;;;18.42;11.63;;;;;;;2.68;73.94;94673.63;5052598;28;20099;-49
2020/12/10 05:55:42;;;;;;;19.15;12.73;;;;;;;2.69;74.27;94661.06;5052446;28;20117;-51
2020/12/10 05:58:09;;;;;;;19.25;12.13;;;;;;;2.88;74.15;94664.22;5052943;28;20049;-46
2020/12/10 06:00:37;;;;;;;19.52;13.02;;;;;;;2.95;73.30;94659.19;5052774;28;20140;-49
2020/12/10 06:03:04;;;;;;;19.25;13.02;;;;;;;2.93;73.67;94660.63;5052470;28;20132;-49
2020/12/10 06:05:30;;;;;;;20.35;13.68;;;;;;;2.99;73.28;94664.69;5051786;28;20045;-52
2020/12/10 06:08:08;;;;;;;20.67;13.35;;;;;;;2.90;72.96;94661.25;5052295;28;20410;-48
2020/12/10 06:10:40;;;;;;;23.13;14.32;;;;;;;2.87;73.57;94673.34;5052298;28;20066;-53
2020/12/10 06:13:07;;;;;;;24.13;14.50;;;;;;;2.88;73.36;94669.56;5052015;28;20486;-48
2020/12/10 06:15:34;;;;;;;22.48;14.30;;;;;;;2.91;73.74;94660.13;5051732;28;20164;-49
2020/12/10 06:18:06;;;;;;;21.67;13.82;;;;;;;3.00;73.54;94667.06;5052635;28;20409;-48
2020/12/10 06:20:38;;;;;;;23.08;14.88;;;;;;;3.14;73.41;94672.22;5052372;28;20057;-49
2020/12/10 06:23:23;;;;;;;20.10;13.65;;;;;;;3.09;72.07;94669.72;5052060;28;20128;-51
2020/12/10 06:25:50;;;;;;;21.48;13.68;;;;;;;2.78;72.66;94665.31;5051544;28;20048;-49
2020/12/10 06:28:21;;;;;;;21.02;12.57;;;;;;;2.41;74.17;94664.00;5051419;28;20072;-51
2020/12/10 06:31:08;;;;;;;23.27;14.98;;;;;;;2.41;74.46;94664.00;5051828;28;20053;-49
2020/12/10 06:33:39;;;;;;;23.33;14.55;;;;;;;2.60;74.30;94668.28;5052067;28;20421;-49
2020/12/10 06:36:23;;;;;;;23.73;14.93;;;;;;;2.85;73.49;94664.06;5051281;28;20080;-46
2020/12/10 06:38:51;;;;;;;24.75;15.38;;;;;;;2.70;74.72;94662.66;5051669;28;20053;-49
2020/12/10 06:41:18;;;;;;;24.70;15.77;;;;;;;2.74;73.93;94668.94;5051702;28;20133;-47
2020/12/10 06:43:45;;;;;;;25.17;15.85;;;;;;;2.79;74.32;94661.56;5052011;28;20458;-48
2020/12/10 06:46:11;;;;;;;22.85;15.18;;;;;;;2.80;74.23;94665.00;5051024;28;20522;-47
2020/12/10 06:48:46;;;;;;;25.38;16.45;;;;;;;2.89;74.70;94670.34;5051539;28;20045;-52
2020/12/10 06:51:19;;;;;;;23.48;15.55;;;;;;;2.90;74.63;94677.28;5051780;28;20131;-51
2020/12/10 06:54:01;;;;;;;;;;;;;;;3.10;73.79;94681.97;5052016;28;20055;-53
2020/12/10 06:56:28;;;;;;;25.63;15.45;;;;;;;2.84;73.98;94673.97;5050765;28;19927;-49
2020/12/10 06:59:01;;;;;;;27.83;17.17;;;;;;;2.77;74.40;94673.66;5051667;28;20079;-50
2020/12/10 07:01:29;;;;;;;25.10;15.43;;;;;;;2.81;74.92;94677.25;5051596;28;20056;-52
2020/12/10 07:07:15;;;;;;;26.25;15.55;;;;;;;2.73;74.57;94686.03;5051017;28;20049;-49
2020/12/10 07:10:01;;;;;;;24.77;16.38;;;;;;;2.69;74.98;94669.84;5051605;28;20049;-48
2020/12/10 07:12:36;;;;;;;26.23;17.15;;;;;;;2.74;74.96;94690.31;5051183;28;20132;-51
2020/12/10 07:15:13;;;;;;;28.60;17.83;;;;;;;2.79;75.25;94679.44;5050144;28;20087;-50
2020/12/10 07:17:45;;;;;;;27.98;17.13;;;;;;;2.78;74.80;94676.00;5051042;28;20053;-53
2020/12/10 07:20:12;;;;;;;30.73;18.83;;;;;;;2.86;74.32;94682.47;5051599;28;20476;-52
2020/12/10 07:22:38;;;;;;;27.88;16.98;;;;;;;2.66;75.80;94688.38;5050021;28;20041;-52
2020/12/10 07:25:05;;;;;;;29.88;18.23;;;;;;;2.80;74.81;94678.38;5051061;28;20293;-50
2020/12/10 07:27:32;;;;;;;28.50;16.95;;;;;;;2.80;74.18;94673.81;5050742;28;20057;-49
2020/12/10 07:29:58;;;;;;;29.05;17.17;;;;;;;2.77;74.65;94677.09;5051271;28;20048;-47
2020/12/10 07:32:26;;;;;;;27.25;17.42;;;;;;;2.65;74.80;94676.94;5051470;28;20049;-54
2020/12/10 07:34:54;;;;;;;32.15;18.80;;;;;;;2.64;75.33;94670.03;5051220;28;20131;-46
2020/12/10 07:37:25;;;;;;;30.02;18.35;;;;;;;2.60;76.17;94668.28;5050319;28;20156;-46
2020/12/10 07:39:51;;;;;;;29.67;18.55;;;;;;;2.62;75.70;94666.09;5052254;28;20057;-48
2020/12/10 07:42:19;;;;;;;28.40;18.65;;;;;;;2.71;75.13;94664.22;5055152;28;20132;-49
2020/12/10 07:44:46;;;;;;;28.65;17.95;;;;;;;2.89;74.85;94665.00;5053838;28;20132;-50
2020/12/10 07:47:13;;;;;;;29.58;18.15;;;;;;;2.79;74.44;94658.06;5054053;28;20081;-51
2020/12/10 07:49:40;;;;;;;34.08;19.55;;;;;;;2.69;74.93;94645.03;5054841;28;20068;-53
2020/12/10 07:52:11;;;;;;;32.10;19.23;;;;;;;2.78;75.50;94649.28;5054759;28;20525;-50
2020/12/10 07:54:46;;;;;;;30.27;18.88;;;;;;;2.96;74.92;94649.31;5054922;28;20136;-49
2020/12/10 07:57:44;;;;;;;28.83;17.08;;;;;;;2.96;73.69;94654.66;5054130;28;20124;-50
2020/12/10 08:00:19;;;;;;;30.23;17.20;;;;;;;3.09;72.96;94651.03;5032711;28;20044;-48
2020/12/10 08:03:16;;;;;;;32.20;18.83;;;;;;;3.13;73.55;94656.53;5053877;28;20056;-50
2020/12/10 08:05:53;;;;;;;30.27;17.67;;;;;;;2.93;73.68;94649.94;5053495;28;20075;-50
2020/12/10 08:08:30;;;;;;;31.25;17.10;;;;;;;2.86;74.54;94650.41;5055174;28;20470;-49
2020/12/10 08:11:18;;;;;;;30.10;18.75;;;;;;;2.75;74.68;94651.81;5054914;28;20068;-49
2020/12/10 08:14:06;;;;;;;33.22;18.85;;;;;;;2.78;74.80;94654.63;5055857;28;20049;-46
2020/12/10 08:16:46;;;;;;;31.10;19.67;;;;;;;2.94;73.95;94651.50;5055058;28;20131;-49
2020/12/10 08:19:34;;;;;;;33.15;20.65;;;;;;;3.14;73.60;94647.41;5055434;28;20045;-49
2020/12/10 08:22:15;;;;;;;32.97;18.55;;;;;;;3.10;73.54;94646.47;5055071;28;20132;-49
2020/12/10 08:24:47;;;;;;;30.95;19.33;;;;;;;3.13;72.68;94645.84;5054810;28;20144;-48
2020/12/10 08:27:18;;;;;;;30.42;18.55;;;;;;;3.06;73.11;94648.19;5054380;28;20041;-48
2020/12/10 08:30:01;;;;;;;31.75;18.58;;;;;;;2.88;73.48;94628.72;5054224;28;20103;-48
2020/12/10 08:32:28;;;;;;;30.52;18.73;;;;;;;3.07;73.25;94639.84;5054283;28;20513;-48
2020/12/10 08:35:07;;;;;;;35.92;19.30;;;;;;;3.04;73.60;94646.59;5054104;28;20114;-48
2020/12/10 08:37:41;;;;;;;34.20;19.25;;;;;;;3.11;73.86;94640.78;5054261;28;20061;-50
2020/12/10 08:40:09;;;;;;;32.53;18.25;;;;;;;2.98;72.83;94644.41;5054235;28;20131;-48
2020/12/10 08:42:35;;;;;;;29.45;16.48;;;;;;;2.90;72.51;94640.66;5054241;28;20059;-49
2020/12/10 08:45:03;;;;;;;31.58;18.35;;;;;;;2.61;74.16;94643.94;5054087;28;20049;-48
2020/12/10 08:47:35;;;;;;;;;;;;;;;2.95;73.51;94643.16;5053658;28;20041;-49
2020/12/10 08:52:58;;;;;;;31.85;19.08;;;;;;;2.95;73.02;94645.03;5053246;28;20078;-51
2020/12/10 08:55:49;;;;;;;32.87;19.27;;;;;;;3.00;73.60;94639.56;5053368;28;20056;-50
2020/12/10 08:58:29;;;;;;;34.35;19.90;;;;;;;3.07;73.61;94625.72;5049113;28;20718;-50
2020/12/10 09:00:59;;;;;;;31.00;18.13;;;;;;;3.13;72.89;94643.16;5053651;28;20049;-48
2020/12/10 09:03:26;;;;;;;32.35;19.00;;;;;;;3.13;71.63;94649.28;5053647;28;20127;-47
2020/12/10 09:05:53;;;;;;;32.42;17.77;;;;;;;3.01;72.95;94646.47;5052915;28;20052;-47
2020/12/10 09:08:19;;;;;;;26.52;16.40;;;;;;;2.99;73.35;94659.34;5053546;28;20135;-52
2020/12/10 09:10:46;;;;;;;27.95;16.85;;;;;;;3.07;72.99;94649.75;5053514;28;20506;-49
2020/12/10 09:13:13;;;;;;;28.15;17.35;;;;;;;3.11;72.80;94650.69;5051848;28;20068;-46
2020/12/10 09:15:43;;;;;;;26.25;16.58;;;;;;;3.21;72.10;94645.03;5051565;28;20051;-47
2020/12/10 09:18:13;;;;;;;28.85;16.92;;;;;;;2.89;71.60;94636.38;5053417;28;20049;-47
2020/12/10 09:20:40;;;;;;;29.17;17.13;;;;;;;2.93;73.12;94648.03;5053626;28;20076;-51
2020/12/10 09:23:10;;;;;;;31.15;18.27;;;;;;;2.97;73.77;94638.28;5053559;28;20052;-50
2020/12/10 09:25:38;;;;;;;26.95;16.58;;;;;;;3.23;71.89;94638.25;5052465;28;20072;-49
2020/12/10 09:28:06;;;;;;;30.50;18.17;;;;;;;2.95;73.30;94639.69;5053189;28;20463;-50
2020/12/10 09:30:32;;;;;;;29.05;17.92;;;;;;;2.91;73.59;94641.44;5052993;28;20252;-46
2020/12/10 09:32:59;;;;;;;26.30;16.25;;;;;;;2.76;72.60;94618.63;5051699;28;20073;-50
2020/12/10 09:35:26;;;;;;;27.25;14.95;;;;;;;2.79;73.02;94632.19;5052161;28;20057;-50
2020/12/10 09:37:53;;;;;;;27.10;15.55;;;;;;;2.92;73.45;94641.09;5052785;28;20099;-48
2020/12/10 09:40:20;;;;;;;26.17;15.98;;;;;;;3.09;73.39;94636.84;5052727;28;20137;-48
2020/12/10 09:42:48;;;;;;;31.52;19.05;;;;;;;3.30;71.91;94624.41;5052983;28;20402;-48
2020/12/10 09:45:15;;;;;;;33.35;19.65;;;;;;;2.84;73.86;94631.22;5052667;28;20049;-50
2020/12/10 09:47:46;;;;;;;32.97;18.70;;;;;;;3.12;72.42;94629.00;5052376;28;20141;-53
2020/12/10 09:50:28;;;;;;;35.47;20.48;;;;;;;3.14;73.25;94618.00;5052798;28;20053;-47
2020/12/10 09:58:20;;;;;;;38.17;20.40;;;;;;;3.36;72.76;94625.81;5053264;28;20079;-47
2020/12/10 10:00:50;;;;;;;34.55;19.92;;;;;;;3.22;72.20;94609.97;5052727;28;20080;-46
2020/12/10 10:03:17;;;;;;;32.40;18.85;;;;;;;2.95;73.99;94611.09;5051264;28;20060;-49
2020/12/10 10:05:54;;;;;;;30.67;18.05;;;;;;;3.12;73.32;94604.16;5051887;28;20560;-51
2020/12/10 10:08:23;;;;;;;30.30;17.70;;;;;;;3.18;72.77;94598.31;5052350;28;20061;-47
2020/12/10 10:10:51;;;;;;;30.80;17.90;;;;;;;3.21;72.70;94594.25;5051955;28;20060;-47
2020/12/10 10:13:17;;;;;;;30.60;18.40;;;;;;;3.25;72.28;94603.19;5063546;22;20106;-48
2020/12/10 10:15:45;;;;;;;29.15;17.75;;;;;;;3.18;72.99;94581.50;5052122;28;20110;-46
2020/12/10 10:18:15;;;;;;;31.73;19.42;;;;;;;3.08;72.88;94593.31;5052738;28;20042;-52
2020/12/10 10:20:43;;;;;;;31.88;18.55;;;;;;;3.35;72.30;94602.06;5052805;28;20047;-47
2020/12/10 10:23:10;;;;;;;34.58;19.98;;;;;;;3.56;71.44;94607.53;5051103;28;20044;-47
2020/12/10 10:25:37;;;;;;;34.10;20.42;;;;;;;3.52;70.79;94602.03;5051939;28;20107;-47
2020/12/10 10:28:03;;;;;;;36.22;20.70;;;;;;;3.35;72.40;94588.69;5052383;28;20048;-49
2020/12/10 10:30:30;;;;;;;35.15;20.38;;;;;;;3.23;72.70;94600.84;5051225;28;20139;-50
2020/12/10 10:32:57;;;;;;;32.50;19.65;;;;;;;3.31;71.89;94582.41;5052004;28;20073;-45
2020/12/10 10:35:24;;;;;;;29.33;17.08;;;;;;;3.31;72.29;94590.44;5052192;28;20624;-44
2020/12/10 10:37:52;;;;;;;27.75;16.45;;;;;;;3.20;72.20;94590.00;5052811;28;20060;-51
2020/12/10 10:40:19;;;;;;;25.83;15.38;;;;;;;3.08;72.65;94561.25;5051382;28;20163;-47
2020/12/10 10:42:46;;;;;;;28.23;16.05;;;;;;;3.36;71.69;94569.69;5052141;28;20064;-46
2020/12/10 10:45:13;;;;;;;29.48;16.38;;;;;;;3.54;71.43;94574.97;5052280;28;20048;-50
2020/12/10 10:47:40;;;;;;;29.08;16.67;;;;;;;3.69;70.68;94571.75;5052499;28;20254;-45
2020/12/10 10:50:06;;;;;;;23.40;13.77;;;;;;;3.76;69.87;94569.34;5050951;28;20077;-48
2020/12/10 10:52:33;;;;;;;27.52;15.32;;;;;;;3.56;71.28;94564.72;5050774;28;20343;-46
2020/12/10 10:54:59;;;;;;;26.05;15.30;;;;;;;3.56;71.01;94572.75;5051765;28;20084;-48
2020/12/10 10:57:25;;;;;;;25.60;15.20;;;;;;;3.66;70.97;94559.81;5051356;28;20080;-47
2020/12/10 10:59:52;;;;;;;24.92;14.98;;;;;;;3.71;70.65;94551.63;5052169;28;20048;-44
2020/12/10 11:02:19;;;;;;;20.23;12.27;;;;;;;3.68;69.50;94583.56;5052300;28;20056;-46
2020/12/10 11:04:46;;;;;;;24.23;14.23;;;;;;;3.78;70.54;94561.03;5052851;28;20041;-46
2020/12/10 11:07:12;;;;;;;22.15;13.25;;;;;;;3.72;70.58;94563.88;5049918;28;20081;-50
2020/12/10 11:09:38;;;;;;;24.88;14.70;;;;;;;4.03;69.86;94560.13;5052119;28;20198;-46
2020/12/10 11:12:05;;;;;;;27.02;14.73;;;;;;;4.07;69.49;94547.66;5051979;28;20517;-48
2020/12/10 11:14:31;;;;;;;24.70;14.88;;;;;;;4.17;69.01;94546.47;5052000;28;20057;-48
2020/12/10 11:16:58;;;;;;;24.73;14.75;;;;;;;4.12;68.79;94560.03;5052168;28;20053;-47
2020/12/10 11:19:25;;;;;;;24.33;14.63;;;;;;;4.02;69.23;94555.06;5051927;28;20045;-49
2020/12/10 11:21:51;;;;;;;26.60;15.13;;;;;;;4.10;69.89;94554.25;5051805;28;20091;-48
2020/12/10 11:24:18;;;;;;;25.45;14.75;;;;;;;4.26;69.12;94549.88;5051717;28;20037;-50
2020/12/10 11:26:45;;;;;;;28.10;16.45;;;;;;;4.22;69.73;94554.31;5051704;28;20438;-47
2020/12/10 11:29:11;;;;;;;28.52;17.10;;;;;;;4.17;70.20;94552.63;5050472;28;20506;-47
2020/12/10 11:31:38;;;;;;;28.08;16.10;;;;;;;4.14;68.02;94539.88;5051627;28;20049;-48
2020/12/10 11:34:05;;;;;;;27.15;15.38;;;;;;;3.67;69.27;94534.66;5050610;28;20495;-46
2020/12/10 11:36:32;;;;;;;27.25;15.63;;;;;;;3.78;71.16;94536.94;5051211;28;20049;-49
2020/12/10 11:38:59;;;;;;;25.52;15.13;;;;;;;3.79;70.73;94538.50;5050537;28;20420;-48
2020/12/10 11:41:25;;;;;;;26.80;14.63;;;;;;;3.82;70.08;94529.84;5051687;28;20057;-54
2020/12/10 11:43:52;;;;;;;24.88;14.80;;;;;;;3.91;69.99;94546.63;5051840;28;20098;-50
2020/12/10 11:46:20;;;;;;;26.00;15.48;;;;;;;3.71;69.04;94540.91;5051195;28;20530;-52